sensor_id;sensor_type;location;lat;lon;timestamp;P1;durP1;ratioP1;P2;durP2;ratioP2
75280;SDS011;63874;47.230;39.620;2022-11-20T00:01:05;1.00;;;0.30;;
75280;SDS011;63874;47.230;39.620;2022-11-20T00:03:38;1.10;;;0.40;;
75280;SDS011;63874;47.230;39.620;2022-11-20T00:06:06;0.80;;;0.22;;
75280;SDS011;63874;47.230;39.620;2022-11-20T00:08:33;1.80;;;0.55;;
75280;SDS011;63874;47.230;39.620;2022-11-20T00:11:12;1.08;;;0.30;;
75280;SDS011;63874;47.230;39.620;2022-11-20T00:13:50;1.65;;;0.50;;
75280;SDS011;63874;47.230;39.620;2022-11-20T00:16:18;2.75;;;0.60;;
75280;SDS011;63874;47.230;39.620;2022-11-20T00:18:45;1.52;;;1.05;;
75280;SDS011;63874;47.230;39.620;2022-11-20T00:21:13;0.93;;;0.50;;
75280;SDS011;63874;47.230;39.620;2022-11-20T00:23:41;1.40;;;0.60;;
75280;SDS011;63874;47.230;39.620;2022-11-20T00:26:09;1.98;;;0.73;;
75280;SDS011;63874;47.230;39.620;2022-11-20T00:28:37;2.08;;;1.70;;
75280;SDS011;63874;47.230;39.620;2022-11-20T00:31:04;1.77;;;1.23;;
75280;SDS011;63874;47.230;39.620;2022-11-20T00:33:35;1.13;;;0.35;;
75280;SDS011;63874;47.230;39.620;2022-11-20T00:36:05;0.95;;;0.40;;
75280;SDS011;63874;47.230;39.620;2022-11-20T00:38:32;2.08;;;1.67;;
75280;SDS011;63874;47.230;39.620;2022-11-20T00:41:00;0.50;;;0.20;;
75280;SDS011;63874;47.230;39.620;2022-11-20T00:43:28;1.48;;;1.00;;
75280;SDS011;63874;47.230;39.620;2022-11-20T00:45:58;1.15;;;0.50;;
75280;SDS011;63874;47.230;39.620;2022-11-20T00:48:25;1.67;;;1.20;;
75280;SDS011;63874;47.230;39.620;2022-11-20T00:50:51;1.67;;;0.38;;
75280;SDS011;63874;47.230;39.620;2022-11-20T00:53:17;1.20;;;0.50;;
75280;SDS011;63874;47.230;39.620;2022-11-20T00:55:53;1.00;;;0.40;;
75280;SDS011;63874;47.230;39.620;2022-11-20T00:58:20;1.25;;;0.93;;
75280;SDS011;63874;47.230;39.620;2022-11-20T01:00:46;2.58;;;1.15;;
75280;SDS011;63874;47.230;39.620;2022-11-20T01:03:13;0.95;;;0.35;;
75280;SDS011;63874;47.230;39.620;2022-11-20T01:05:39;0.52;;;0.17;;
75280;SDS011;63874;47.230;39.620;2022-11-20T01:08:04;1.05;;;0.40;;
75280;SDS011;63874;47.230;39.620;2022-11-20T01:10:30;1.20;;;0.45;;
75280;SDS011;63874;47.230;39.620;2022-11-20T01:12:56;1.63;;;0.77;;
75280;SDS011;63874;47.230;39.620;2022-11-20T01:15:40;1.60;;;0.70;;
75280;SDS011;63874;47.230;39.620;2022-11-20T01:18:06;0.90;;;0.47;;
75280;SDS011;63874;47.230;39.620;2022-11-20T01:20:35;1.38;;;0.77;;
75280;SDS011;63874;47.230;39.620;2022-11-20T01:23:02;1.48;;;0.57;;
75280;SDS011;63874;47.230;39.620;2022-11-20T01:25:28;1.20;;;0.55;;
75280;SDS011;63874;47.230;39.620;2022-11-20T01:27:54;1.27;;;0.57;;
75280;SDS011;63874;47.230;39.620;2022-11-20T01:30:20;2.25;;;1.90;;
75280;SDS011;63874;47.230;39.620;2022-11-20T01:32:47;1.10;;;0.40;;
75280;SDS011;63874;47.230;39.620;2022-11-20T01:35:13;1.52;;;0.90;;
75280;SDS011;63874;47.230;39.620;2022-11-20T01:37:39;1.38;;;0.52;;
75280;SDS011;63874;47.230;39.620;2022-11-20T01:40:05;2.90;;;2.00;;
75280;SDS011;63874;47.230;39.620;2022-11-20T01:42:31;1.65;;;0.60;;
75280;SDS011;63874;47.230;39.620;2022-11-20T01:48:00;1.45;;;0.95;;
75280;SDS011;63874;47.230;39.620;2022-11-20T01:50:27;1.75;;;1.45;;
75280;SDS011;63874;47.230;39.620;2022-11-20T01:55:31;2.10;;;1.63;;
75280;SDS011;63874;47.230;39.620;2022-11-20T01:57:59;1.48;;;0.43;;
75280;SDS011;63874;47.230;39.620;2022-11-20T02:00:27;1.35;;;0.75;;
75280;SDS011;63874;47.230;39.620;2022-11-20T02:03:03;1.40;;;0.47;;
75280;SDS011;63874;47.230;39.620;2022-11-20T02:05:41;1.35;;;0.65;;
75280;SDS011;63874;47.230;39.620;2022-11-20T02:08:11;1.85;;;0.80;;
75280;SDS011;63874;47.230;39.620;2022-11-20T02:10:38;1.33;;;0.45;;
75280;SDS011;63874;47.230;39.620;2022-11-20T02:13:05;1.23;;;0.40;;
75280;SDS011;63874;47.230;39.620;2022-11-20T02:15:49;1.45;;;0.55;;
75280;SDS011;63874;47.230;39.620;2022-11-20T02:18:16;3.22;;;0.45;;
75280;SDS011;63874;47.230;39.620;2022-11-20T02:20:44;1.25;;;0.60;;
75280;SDS011;63874;47.230;39.620;2022-11-20T02:25:58;1.15;;;0.70;;
75280;SDS011;63874;47.230;39.620;2022-11-20T02:28:28;1.33;;;0.73;;
75280;SDS011;63874;47.230;39.620;2022-11-20T02:30:54;1.10;;;0.50;;
75280;SDS011;63874;47.230;39.620;2022-11-20T02:33:20;1.42;;;0.73;;
75280;SDS011;63874;47.230;39.620;2022-11-20T02:35:46;1.67;;;0.43;;
75280;SDS011;63874;47.230;39.620;2022-11-20T02:38:12;0.93;;;0.40;;
75280;SDS011;63874;47.230;39.620;2022-11-20T02:40:39;1.10;;;0.73;;
75280;SDS011;63874;47.230;39.620;2022-11-20T02:43:05;1.27;;;0.65;;
75280;SDS011;63874;47.230;39.620;2022-11-20T02:45:31;1.05;;;0.43;;
75280;SDS011;63874;47.230;39.620;2022-11-20T02:47:58;1.70;;;0.73;;
75280;SDS011;63874;47.230;39.620;2022-11-20T02:50:24;1.65;;;0.50;;
75280;SDS011;63874;47.230;39.620;2022-11-20T02:52:51;1.63;;;0.70;;
75280;SDS011;63874;47.230;39.620;2022-11-20T02:55:17;1.20;;;0.50;;
75280;SDS011;63874;47.230;39.620;2022-11-20T02:57:43;1.95;;;0.60;;
75280;SDS011;63874;47.230;39.620;2022-11-20T03:00:09;1.50;;;0.55;;
75280;SDS011;63874;47.230;39.620;2022-11-20T03:02:35;1.10;;;0.50;;
75280;SDS011;63874;47.230;39.620;2022-11-20T03:05:01;0.90;;;0.38;;
75280;SDS011;63874;47.230;39.620;2022-11-20T03:07:28;1.30;;;0.60;;
75280;SDS011;63874;47.230;39.620;2022-11-20T03:09:54;0.70;;;0.30;;
75280;SDS011;63874;47.230;39.620;2022-11-20T03:12:19;2.38;;;0.65;;
75280;SDS011;63874;47.230;39.620;2022-11-20T03:14:45;1.00;;;0.40;;
75280;SDS011;63874;47.230;39.620;2022-11-20T03:17:11;2.00;;;1.25;;
75280;SDS011;63874;47.230;39.620;2022-11-20T03:19:37;1.63;;;0.75;;
75280;SDS011;63874;47.230;39.620;2022-11-20T03:22:03;1.33;;;0.45;;
75280;SDS011;63874;47.230;39.620;2022-11-20T03:24:29;1.20;;;0.57;;
75280;SDS011;63874;47.230;39.620;2022-11-20T03:26:55;2.03;;;1.42;;
75280;SDS011;63874;47.230;39.620;2022-11-20T03:29:21;1.25;;;0.55;;
75280;SDS011;63874;47.230;39.620;2022-11-20T03:31:46;1.10;;;0.50;;
75280;SDS011;63874;47.230;39.620;2022-11-20T03:34:12;1.70;;;0.60;;
75280;SDS011;63874;47.230;39.620;2022-11-20T03:36:39;1.33;;;0.68;;
75280;SDS011;63874;47.230;39.620;2022-11-20T03:39:07;1.85;;;0.73;;
75280;SDS011;63874;47.230;39.620;2022-11-20T03:41:38;1.42;;;0.77;;
75280;SDS011;63874;47.230;39.620;2022-11-20T03:44:07;2.65;;;1.90;;
75280;SDS011;63874;47.230;39.620;2022-11-20T03:46:34;1.08;;;0.45;;
75280;SDS011;63874;47.230;39.620;2022-11-20T03:49:00;1.10;;;0.55;;
75280;SDS011;63874;47.230;39.620;2022-11-20T03:51:34;1.20;;;0.50;;
75280;SDS011;63874;47.230;39.620;2022-11-20T03:54:04;1.60;;;0.75;;
75280;SDS011;63874;47.230;39.620;2022-11-20T03:56:32;1.30;;;0.60;;
75280;SDS011;63874;47.230;39.620;2022-11-20T03:59:00;2.13;;;1.25;;
75280;SDS011;63874;47.230;39.620;2022-11-20T04:01:30;1.25;;;0.55;;
75280;SDS011;63874;47.230;39.620;2022-11-20T04:03:58;2.80;;;2.50;;
75280;SDS011;63874;47.230;39.620;2022-11-20T04:06:33;1.35;;;0.82;;
75280;SDS011;63874;47.230;39.620;2022-11-20T04:09:01;1.02;;;0.50;;
75280;SDS011;63874;47.230;39.620;2022-11-20T04:11:28;1.83;;;0.70;;
75280;SDS011;63874;47.230;39.620;2022-11-20T04:13:59;1.50;;;0.80;;
75280;SDS011;63874;47.230;39.620;2022-11-20T04:16:31;1.98;;;1.73;;
75280;SDS011;63874;47.230;39.620;2022-11-20T04:18:59;1.20;;;0.50;;
75280;SDS011;63874;47.230;39.620;2022-11-20T04:21:26;1.13;;;0.50;;
75280;SDS011;63874;47.230;39.620;2022-11-20T04:23:53;1.88;;;0.93;;
75280;SDS011;63874;47.230;39.620;2022-11-20T04:26:20;1.63;;;0.63;;
75280;SDS011;63874;47.230;39.620;2022-11-20T04:28:47;1.85;;;0.80;;
75280;SDS011;63874;47.230;39.620;2022-11-20T04:31:14;1.33;;;0.50;;
75280;SDS011;63874;47.230;39.620;2022-11-20T04:33:42;1.70;;;1.00;;
75280;SDS011;63874;47.230;39.620;2022-11-20T04:38:38;1.65;;;0.73;;
75280;SDS011;63874;47.230;39.620;2022-11-20T04:41:07;1.80;;;1.02;;
75280;SDS011;63874;47.230;39.620;2022-11-20T04:43:35;1.23;;;0.55;;
75280;SDS011;63874;47.230;39.620;2022-11-20T04:46:01;1.85;;;1.13;;
75280;SDS011;63874;47.230;39.620;2022-11-20T04:48:27;1.60;;;0.82;;
75280;SDS011;63874;47.230;39.620;2022-11-20T04:50:54;3.13;;;1.88;;
75280;SDS011;63874;47.230;39.620;2022-11-20T04:53:21;1.27;;;0.40;;
75280;SDS011;63874;47.230;39.620;2022-11-20T04:55:47;1.83;;;0.80;;
75280;SDS011;63874;47.230;39.620;2022-11-20T04:58:13;2.72;;;2.38;;
75280;SDS011;63874;47.230;39.620;2022-11-20T05:00:39;1.45;;;0.60;;
75280;SDS011;63874;47.230;39.620;2022-11-20T05:03:05;1.63;;;0.93;;
75280;SDS011;63874;47.230;39.620;2022-11-20T05:05:33;2.03;;;1.02;;
75280;SDS011;63874;47.230;39.620;2022-11-20T05:08:00;1.42;;;0.70;;
75280;SDS011;63874;47.230;39.620;2022-11-20T05:10:26;1.88;;;1.08;;
75280;SDS011;63874;47.230;39.620;2022-11-20T05:12:52;1.75;;;0.90;;
75280;SDS011;63874;47.230;39.620;2022-11-20T05:15:18;2.10;;;0.90;;
75280;SDS011;63874;47.230;39.620;2022-11-20T05:17:48;1.50;;;0.60;;
75280;SDS011;63874;47.230;39.620;2022-11-20T05:20:14;1.90;;;0.93;;
75280;SDS011;63874;47.230;39.620;2022-11-20T05:22:40;1.63;;;0.60;;
75280;SDS011;63874;47.230;39.620;2022-11-20T05:25:06;1.52;;;0.90;;
75280;SDS011;63874;47.230;39.620;2022-11-20T05:27:32;1.83;;;0.75;;
75280;SDS011;63874;47.230;39.620;2022-11-20T05:29:58;2.40;;;0.90;;
75280;SDS011;63874;47.230;39.620;2022-11-20T05:32:24;1.33;;;0.63;;
75280;SDS011;63874;47.230;39.620;2022-11-20T05:34:53;1.75;;;0.88;;
75280;SDS011;63874;47.230;39.620;2022-11-20T05:37:19;1.77;;;0.90;;
75280;SDS011;63874;47.230;39.620;2022-11-20T05:39:45;1.90;;;1.00;;
75280;SDS011;63874;47.230;39.620;2022-11-20T05:42:11;1.85;;;0.80;;
75280;SDS011;63874;47.230;39.620;2022-11-20T05:44:55;1.67;;;0.77;;
75280;SDS011;63874;47.230;39.620;2022-11-20T05:47:22;1.35;;;0.65;;
75280;SDS011;63874;47.230;39.620;2022-11-20T05:49:48;2.20;;;0.80;;
75280;SDS011;63874;47.230;39.620;2022-11-20T05:52:14;1.95;;;0.70;;
75280;SDS011;63874;47.230;39.620;2022-11-20T05:54:39;1.33;;;0.65;;
75280;SDS011;63874;47.230;39.620;2022-11-20T05:57:05;1.95;;;1.08;;
75280;SDS011;63874;47.230;39.620;2022-11-20T05:59:31;1.70;;;1.00;;
75280;SDS011;63874;47.230;39.620;2022-11-20T06:01:57;1.88;;;0.80;;
75280;SDS011;63874;47.230;39.620;2022-11-20T06:04:23;1.77;;;0.50;;
75280;SDS011;63874;47.230;39.620;2022-11-20T06:06:49;1.30;;;0.70;;
75280;SDS011;63874;47.230;39.620;2022-11-20T06:09:15;1.70;;;0.88;;
75280;SDS011;63874;47.230;39.620;2022-11-20T06:11:41;1.98;;;1.15;;
75280;SDS011;63874;47.230;39.620;2022-11-20T06:14:07;2.33;;;1.10;;
75280;SDS011;63874;47.230;39.620;2022-11-20T06:16:32;2.20;;;0.73;;
75280;SDS011;63874;47.230;39.620;2022-11-20T06:18:58;1.88;;;1.10;;
75280;SDS011;63874;47.230;39.620;2022-11-20T06:21:24;1.88;;;1.10;;
75280;SDS011;63874;47.230;39.620;2022-11-20T06:23:51;2.15;;;1.02;;
75280;SDS011;63874;47.230;39.620;2022-11-20T06:26:23;1.73;;;0.68;;
75280;SDS011;63874;47.230;39.620;2022-11-20T06:28:50;1.60;;;0.63;;
75280;SDS011;63874;47.230;39.620;2022-11-20T06:31:19;2.20;;;1.00;;
75280;SDS011;63874;47.230;39.620;2022-11-20T06:33:47;2.45;;;0.93;;
75280;SDS011;63874;47.230;39.620;2022-11-20T06:36:14;1.88;;;0.80;;
75280;SDS011;63874;47.230;39.620;2022-11-20T06:38:41;1.80;;;0.90;;
75280;SDS011;63874;47.230;39.620;2022-11-20T06:41:12;1.90;;;1.00;;
75280;SDS011;63874;47.230;39.620;2022-11-20T06:43:40;1.73;;;0.98;;
75280;SDS011;63874;47.230;39.620;2022-11-20T06:46:06;2.33;;;1.05;;
75280;SDS011;63874;47.230;39.620;2022-11-20T06:48:34;2.42;;;0.90;;
75280;SDS011;63874;47.230;39.620;2022-11-20T06:51:00;2.58;;;1.27;;
75280;SDS011;63874;47.230;39.620;2022-11-20T06:53:28;2.83;;;1.10;;
75280;SDS011;63874;47.230;39.620;2022-11-20T06:55:55;1.83;;;0.80;;
75280;SDS011;63874;47.230;39.620;2022-11-20T06:58:23;3.00;;;1.52;;
75280;SDS011;63874;47.230;39.620;2022-11-20T07:00:51;2.83;;;1.63;;
75280;SDS011;63874;47.230;39.620;2022-11-20T07:03:17;2.47;;;1.17;;
75280;SDS011;63874;47.230;39.620;2022-11-20T07:05:46;2.38;;;1.23;;
75280;SDS011;63874;47.230;39.620;2022-11-20T07:08:12;2.30;;;1.05;;
75280;SDS011;63874;47.230;39.620;2022-11-20T07:10:38;3.00;;;1.30;;
75280;SDS011;63874;47.230;39.620;2022-11-20T07:13:04;3.28;;;1.60;;
75280;SDS011;63874;47.230;39.620;2022-11-20T07:15:32;2.47;;;0.90;;
75280;SDS011;63874;47.230;39.620;2022-11-20T07:17:58;2.42;;;1.30;;
75280;SDS011;63874;47.230;39.620;2022-11-20T07:20:25;2.90;;;1.75;;
75280;SDS011;63874;47.230;39.620;2022-11-20T07:22:54;2.65;;;1.35;;
75280;SDS011;63874;47.230;39.620;2022-11-20T07:25:22;3.67;;;1.27;;
75280;SDS011;63874;47.230;39.620;2022-11-20T07:27:48;2.55;;;1.10;;
75280;SDS011;63874;47.230;39.620;2022-11-20T07:30:15;2.47;;;1.30;;
75280;SDS011;63874;47.230;39.620;2022-11-20T07:32:41;2.75;;;1.05;;
75280;SDS011;63874;47.230;39.620;2022-11-20T07:35:07;3.58;;;2.92;;
75280;SDS011;63874;47.230;39.620;2022-11-20T07:37:36;5.10;;;1.70;;
75280;SDS011;63874;47.230;39.620;2022-11-20T07:40:02;2.65;;;1.25;;
75280;SDS011;63874;47.230;39.620;2022-11-20T07:42:28;2.72;;;1.30;;
75280;SDS011;63874;47.230;39.620;2022-11-20T07:44:55;3.65;;;1.63;;
75280;SDS011;63874;47.230;39.620;2022-11-20T07:47:21;3.05;;;1.33;;
75280;SDS011;63874;47.230;39.620;2022-11-20T07:49:46;2.50;;;1.30;;
75280;SDS011;63874;47.230;39.620;2022-11-20T07:52:12;2.22;;;1.00;;
75280;SDS011;63874;47.230;39.620;2022-11-20T07:54:38;2.58;;;1.27;;
75280;SDS011;63874;47.230;39.620;2022-11-20T07:57:04;2.65;;;1.73;;
75280;SDS011;63874;47.230;39.620;2022-11-20T07:59:30;2.65;;;1.35;;
75280;SDS011;63874;47.230;39.620;2022-11-20T08:01:56;1.95;;;0.95;;
75280;SDS011;63874;47.230;39.620;2022-11-20T08:04:22;1.98;;;0.85;;
75280;SDS011;63874;47.230;39.620;2022-11-20T08:06:48;2.42;;;1.33;;
75280;SDS011;63874;47.230;39.620;2022-11-20T08:09:14;2.55;;;1.15;;
75280;SDS011;63874;47.230;39.620;2022-11-20T08:11:40;2.70;;;0.88;;
75280;SDS011;63874;47.230;39.620;2022-11-20T08:14:24;3.13;;;2.10;;
75280;SDS011;63874;47.230;39.620;2022-11-20T08:16:52;2.83;;;1.75;;
75280;SDS011;63874;47.230;39.620;2022-11-20T08:19:18;2.63;;;1.20;;
75280;SDS011;63874;47.230;39.620;2022-11-20T08:21:44;2.33;;;0.90;;
75280;SDS011;63874;47.230;39.620;2022-11-20T08:24:11;2.45;;;1.17;;
75280;SDS011;63874;47.230;39.620;2022-11-20T08:26:37;2.80;;;1.50;;
75280;SDS011;63874;47.230;39.620;2022-11-20T08:29:04;2.28;;;1.00;;
75280;SDS011;63874;47.230;39.620;2022-11-20T08:31:30;2.88;;;1.48;;
75280;SDS011;63874;47.230;39.620;2022-11-20T08:33:56;3.35;;;1.38;;
75280;SDS011;63874;47.230;39.620;2022-11-20T08:36:23;3.30;;;2.40;;
75280;SDS011;63874;47.230;39.620;2022-11-20T08:38:50;2.42;;;1.20;;
75280;SDS011;63874;47.230;39.620;2022-11-20T08:41:17;2.53;;;1.38;;
75280;SDS011;63874;47.230;39.620;2022-11-20T08:43:54;2.97;;;1.38;;
75280;SDS011;63874;47.230;39.620;2022-11-20T08:46:22;3.03;;;1.30;;
75280;SDS011;63874;47.230;39.620;2022-11-20T08:48:52;2.50;;;1.20;;
75280;SDS011;63874;47.230;39.620;2022-11-20T08:51:19;2.92;;;1.42;;
75280;SDS011;63874;47.230;39.620;2022-11-20T08:53:45;3.42;;;1.30;;
75280;SDS011;63874;47.230;39.620;2022-11-20T08:56:13;2.97;;;1.58;;
75280;SDS011;63874;47.230;39.620;2022-11-20T08:58:39;4.10;;;1.35;;
75280;SDS011;63874;47.230;39.620;2022-11-20T09:01:06;2.45;;;1.48;;
75280;SDS011;63874;47.230;39.620;2022-11-20T09:03:32;2.55;;;1.30;;
75280;SDS011;63874;47.230;39.620;2022-11-20T09:06:06;3.70;;;1.20;;
75280;SDS011;63874;47.230;39.620;2022-11-20T09:08:35;2.40;;;1.27;;
75280;SDS011;63874;47.230;39.620;2022-11-20T09:11:07;2.67;;;1.70;;
75280;SDS011;63874;47.230;39.620;2022-11-20T09:13:34;2.13;;;1.00;;
75280;SDS011;63874;47.230;39.620;2022-11-20T09:16:05;2.17;;;0.93;;
75280;SDS011;63874;47.230;39.620;2022-11-20T09:18:35;3.35;;;1.55;;
75280;SDS011;63874;47.230;39.620;2022-11-20T09:21:06;2.70;;;1.40;;
75280;SDS011;63874;47.230;39.620;2022-11-20T09:23:36;2.63;;;1.35;;
75280;SDS011;63874;47.230;39.620;2022-11-20T09:26:12;2.50;;;1.42;;
75280;SDS011;63874;47.230;39.620;2022-11-20T09:28:39;2.78;;;1.45;;
75280;SDS011;63874;47.230;39.620;2022-11-20T09:31:09;2.80;;;1.35;;
75280;SDS011;63874;47.230;39.620;2022-11-20T09:33:51;3.15;;;2.08;;
75280;SDS011;63874;47.230;39.620;2022-11-20T09:36:17;3.10;;;1.33;;
75280;SDS011;63874;47.230;39.620;2022-11-20T09:38:44;3.35;;;2.08;;
75280;SDS011;63874;47.230;39.620;2022-11-20T09:41:31;2.28;;;1.10;;
75280;SDS011;63874;47.230;39.620;2022-11-20T09:44:05;2.80;;;1.83;;
75280;SDS011;63874;47.230;39.620;2022-11-20T09:49:25;2.78;;;1.33;;
75280;SDS011;63874;47.230;39.620;2022-11-20T09:51:57;2.72;;;1.40;;
75280;SDS011;63874;47.230;39.620;2022-11-20T09:54:31;3.13;;;1.55;;
75280;SDS011;63874;47.230;39.620;2022-11-20T09:57:18;3.20;;;1.58;;
75280;SDS011;63874;47.230;39.620;2022-11-20T09:59:54;2.95;;;1.48;;
75280;SDS011;63874;47.230;39.620;2022-11-20T10:02:44;2.83;;;0.90;;
75280;SDS011;63874;47.230;39.620;2022-11-20T10:05:28;3.30;;;2.20;;
75280;SDS011;63874;47.230;39.620;2022-11-20T10:08:10;2.72;;;1.58;;
75280;SDS011;63874;47.230;39.620;2022-11-20T10:11:17;2.17;;;1.05;;
75280;SDS011;63874;47.230;39.620;2022-11-20T10:14:01;2.38;;;1.20;;
75280;SDS011;63874;47.230;39.620;2022-11-20T10:24:44;2.40;;;1.30;;
75280;SDS011;63874;47.230;39.620;2022-11-20T10:30:15;4.47;;;2.83;;
75280;SDS011;63874;47.230;39.620;2022-11-20T10:32:43;3.15;;;1.60;;
75280;SDS011;63874;47.230;39.620;2022-11-20T10:38:00;3.15;;;1.83;;
75280;SDS011;63874;47.230;39.620;2022-11-20T10:45:53;2.50;;;1.42;;
75280;SDS011;63874;47.230;39.620;2022-11-20T10:48:25;2.50;;;1.00;;
75280;SDS011;63874;47.230;39.620;2022-11-20T11:02:14;4.13;;;1.50;;
75280;SDS011;63874;47.230;39.620;2022-11-20T11:04:54;3.00;;;1.42;;
75280;SDS011;63874;47.230;39.620;2022-11-20T11:07:36;3.35;;;1.40;;
75280;SDS011;63874;47.230;39.620;2022-11-20T11:10:18;3.28;;;1.52;;
75280;SDS011;63874;47.230;39.620;2022-11-20T11:12:48;2.25;;;1.15;;
75280;SDS011;63874;47.230;39.620;2022-11-20T11:15:24;3.17;;;1.38;;
75280;SDS011;63874;47.230;39.620;2022-11-20T11:17:54;3.42;;;1.88;;
75280;SDS011;63874;47.230;39.620;2022-11-20T11:20:24;3.05;;;1.50;;
75280;SDS011;63874;47.230;39.620;2022-11-20T11:22:52;1.90;;;1.00;;
75280;SDS011;63874;47.230;39.620;2022-11-20T11:25:22;3.38;;;1.70;;
75280;SDS011;63874;47.230;39.620;2022-11-20T11:27:58;3.30;;;1.60;;
75280;SDS011;63874;47.230;39.620;2022-11-20T11:30:26;3.42;;;1.55;;
75280;SDS011;63874;47.230;39.620;2022-11-20T11:33:05;3.50;;;1.83;;
75280;SDS011;63874;47.230;39.620;2022-11-20T11:35:38;2.90;;;1.50;;
75280;SDS011;63874;47.230;39.620;2022-11-20T11:38:16;2.70;;;1.35;;
75280;SDS011;63874;47.230;39.620;2022-11-20T11:40:45;3.42;;;2.00;;
75280;SDS011;63874;47.230;39.620;2022-11-20T11:43:49;3.20;;;2.17;;
75280;SDS011;63874;47.230;39.620;2022-11-20T11:46:30;3.33;;;1.33;;
75280;SDS011;63874;47.230;39.620;2022-11-20T11:52:17;3.65;;;1.63;;
75280;SDS011;63874;47.230;39.620;2022-11-20T11:57:26;3.08;;;1.38;;
75280;SDS011;63874;47.230;39.620;2022-11-20T12:00:13;4.40;;;3.35;;
75280;SDS011;63874;47.230;39.620;2022-11-20T12:05:14;2.40;;;1.17;;
75280;SDS011;63874;47.230;39.620;2022-11-20T12:10:50;2.90;;;1.38;;
75280;SDS011;63874;47.230;39.620;2022-11-20T12:16:36;4.03;;;2.95;;
75280;SDS011;63874;47.230;39.620;2022-11-20T12:19:07;3.75;;;2.63;;
75280;SDS011;63874;47.230;39.620;2022-11-20T12:21:52;1.63;;;0.85;;
75280;SDS011;63874;47.230;39.620;2022-11-20T12:27:34;2.80;;;1.27;;
75280;SDS011;63874;47.230;39.620;2022-11-20T12:30:23;1.88;;;0.90;;
75280;SDS011;63874;47.230;39.620;2022-11-20T12:44:32;2.38;;;1.30;;
75280;SDS011;63874;47.230;39.620;2022-11-20T12:58:33;2.08;;;1.35;;
75280;SDS011;63874;47.230;39.620;2022-11-20T13:04:19;2.85;;;1.02;;
75280;SDS011;63874;47.230;39.620;2022-11-20T13:07:02;3.03;;;2.05;;
75280;SDS011;63874;47.230;39.620;2022-11-20T13:09:30;2.60;;;1.40;;
75280;SDS011;63874;47.230;39.620;2022-11-20T13:14:58;3.75;;;1.45;;
75280;SDS011;63874;47.230;39.620;2022-11-20T13:20:12;2.67;;;1.63;;
75280;SDS011;63874;47.230;39.620;2022-11-20T13:27:54;3.30;;;1.80;;
75280;SDS011;63874;47.230;39.620;2022-11-20T13:30:23;2.65;;;1.40;;
75280;SDS011;63874;47.230;39.620;2022-11-20T13:35:37;2.50;;;1.30;;
75280;SDS011;63874;47.230;39.620;2022-11-20T13:38:08;3.35;;;1.60;;
75280;SDS011;63874;47.230;39.620;2022-11-20T13:40:39;2.63;;;1.33;;
75280;SDS011;63874;47.230;39.620;2022-11-20T13:43:56;3.03;;;1.50;;
75280;SDS011;63874;47.230;39.620;2022-11-20T13:46:15;2.60;;;1.40;;
75280;SDS011;63874;47.230;39.620;2022-11-20T13:48:41;2.50;;;1.48;;
75280;SDS011;63874;47.230;39.620;2022-11-20T13:56:47;3.45;;;1.63;;
75280;SDS011;63874;47.230;39.620;2022-11-20T14:02:36;1.90;;;0.93;;
75280;SDS011;63874;47.230;39.620;2022-11-20T14:05:02;2.83;;;1.50;;
75280;SDS011;63874;47.230;39.620;2022-11-20T14:07:39;2.83;;;1.08;;
75280;SDS011;63874;47.230;39.620;2022-11-20T14:10:21;3.30;;;1.52;;
75280;SDS011;63874;47.230;39.620;2022-11-20T14:12:51;2.90;;;1.58;;
75280;SDS011;63874;47.230;39.620;2022-11-20T14:15:24;3.08;;;1.73;;
75280;SDS011;63874;47.230;39.620;2022-11-20T14:17:55;2.03;;;1.02;;
75280;SDS011;63874;47.230;39.620;2022-11-20T14:20:23;3.72;;;1.90;;
75280;SDS011;63874;47.230;39.620;2022-11-20T14:22:51;2.72;;;1.20;;
75280;SDS011;63874;47.230;39.620;2022-11-20T14:27:52;3.35;;;1.92;;
75280;SDS011;63874;47.230;39.620;2022-11-20T14:30:26;2.72;;;1.42;;
75280;SDS011;63874;47.230;39.620;2022-11-20T14:32:55;3.05;;;2.53;;
75280;SDS011;63874;47.230;39.620;2022-11-20T14:35:26;2.83;;;1.45;;
75280;SDS011;63874;47.230;39.620;2022-11-20T14:37:55;2.53;;;1.20;;
75280;SDS011;63874;47.230;39.620;2022-11-20T14:42:52;2.58;;;1.25;;
75280;SDS011;63874;47.230;39.620;2022-11-20T14:45:18;2.58;;;1.50;;
75280;SDS011;63874;47.230;39.620;2022-11-20T14:47:45;2.28;;;1.38;;
75280;SDS011;63874;47.230;39.620;2022-11-20T14:50:19;3.47;;;1.85;;
75280;SDS011;63874;47.230;39.620;2022-11-20T14:52:54;2.00;;;1.02;;
75280;SDS011;63874;47.230;39.620;2022-11-20T14:55:25;2.42;;;1.38;;
75280;SDS011;63874;47.230;39.620;2022-11-20T14:57:57;2.70;;;1.33;;
75280;SDS011;63874;47.230;39.620;2022-11-20T15:00:25;2.83;;;1.63;;
75280;SDS011;63874;47.230;39.620;2022-11-20T15:02:51;2.95;;;1.70;;
75280;SDS011;63874;47.230;39.620;2022-11-20T15:05:19;2.65;;;1.60;;
75280;SDS011;63874;47.230;39.620;2022-11-20T15:07:48;2.50;;;1.27;;
75280;SDS011;63874;47.230;39.620;2022-11-20T15:12:56;3.05;;;1.00;;
75280;SDS011;63874;47.230;39.620;2022-11-20T15:15:35;3.47;;;1.38;;
75280;SDS011;63874;47.230;39.620;2022-11-20T15:18:12;2.97;;;1.58;;
75280;SDS011;63874;47.230;39.620;2022-11-20T15:23:12;2.45;;;1.00;;
75280;SDS011;63874;47.230;39.620;2022-11-20T15:25:40;2.72;;;1.30;;
75280;SDS011;63874;47.230;39.620;2022-11-20T15:28:20;3.25;;;2.13;;
75280;SDS011;63874;47.230;39.620;2022-11-20T15:33:17;2.95;;;1.35;;
75280;SDS011;63874;47.230;39.620;2022-11-20T15:35:44;3.22;;;1.63;;
75280;SDS011;63874;47.230;39.620;2022-11-20T15:38:10;3.60;;;1.70;;
75280;SDS011;63874;47.230;39.620;2022-11-20T15:40:36;2.08;;;0.77;;
75280;SDS011;63874;47.230;39.620;2022-11-20T15:43:02;2.88;;;1.00;;
75280;SDS011;63874;47.230;39.620;2022-11-20T15:45:29;3.05;;;1.60;;
75280;SDS011;63874;47.230;39.620;2022-11-20T15:47:58;3.88;;;1.77;;
75280;SDS011;63874;47.230;39.620;2022-11-20T15:50:27;2.25;;;1.02;;
75280;SDS011;63874;47.230;39.620;2022-11-20T15:53:01;3.17;;;1.70;;
75280;SDS011;63874;47.230;39.620;2022-11-20T15:55:27;2.65;;;1.30;;
75280;SDS011;63874;47.230;39.620;2022-11-20T15:57:53;3.95;;;3.17;;
75280;SDS011;63874;47.230;39.620;2022-11-20T16:00:19;2.35;;;1.23;;
75280;SDS011;63874;47.230;39.620;2022-11-20T16:02:45;3.17;;;1.50;;
75280;SDS011;63874;47.230;39.620;2022-11-20T16:05:11;2.72;;;1.25;;
75280;SDS011;63874;47.230;39.620;2022-11-20T16:07:38;2.47;;;1.40;;
75280;SDS011;63874;47.230;39.620;2022-11-20T16:10:04;2.40;;;1.17;;
75280;SDS011;63874;47.230;39.620;2022-11-20T16:12:30;4.13;;;3.35;;
75280;SDS011;63874;47.230;39.620;2022-11-20T16:15:15;3.90;;;3.13;;
75280;SDS011;63874;47.230;39.620;2022-11-20T16:17:59;3.55;;;2.05;;
75280;SDS011;63874;47.230;39.620;2022-11-20T16:20:25;2.92;;;1.65;;
75280;SDS011;63874;47.230;39.620;2022-11-20T16:22:51;2.85;;;1.13;;
75280;SDS011;63874;47.230;39.620;2022-11-20T16:25:17;3.33;;;1.92;;
75280;SDS011;63874;47.230;39.620;2022-11-20T16:27:43;2.95;;;1.60;;
75280;SDS011;63874;47.230;39.620;2022-11-20T16:30:09;2.25;;;1.13;;
75280;SDS011;63874;47.230;39.620;2022-11-20T16:32:35;2.95;;;1.42;;
75280;SDS011;63874;47.230;39.620;2022-11-20T16:35:01;2.78;;;1.63;;
75280;SDS011;63874;47.230;39.620;2022-11-20T16:37:28;2.35;;;1.15;;
75280;SDS011;63874;47.230;39.620;2022-11-20T16:39:54;2.60;;;1.17;;
75280;SDS011;63874;47.230;39.620;2022-11-20T16:42:21;2.38;;;1.23;;
75280;SDS011;63874;47.230;39.620;2022-11-20T16:44:47;2.40;;;1.30;;
75280;SDS011;63874;47.230;39.620;2022-11-20T16:47:13;2.40;;;1.33;;
75280;SDS011;63874;47.230;39.620;2022-11-20T16:49:39;2.75;;;1.70;;